sensor_id;sensor_type;location;lat;lon;timestamp;pressure;altitude;pressure_sealevel;temperature;humidity
14204;BME280;7185;51.854;6.622;2022-08-05T00:01:26;101142.50;;;20.14;100.00
14204;BME280;7185;51.854;6.622;2022-08-05T00:03:58;101151.41;;;20.13;100.00
14204;BME280;7185;51.854;6.622;2022-08-05T00:06:30;101157.53;;;20.15;100.00
14204;BME280;7185;51.854;6.622;2022-08-05T00:09:02;101157.75;;;20.10;100.00
14204;BME280;7185;51.854;6.622;2022-08-05T00:11:35;101169.59;;;20.04;100.00
14204;BME280;7185;51.854;6.622;2022-08-05T00:14:07;101177.63;;;20.03;100.00
14204;BME280;7185;51.854;6.622;2022-08-05T00:16:39;101172.25;;;20.04;100.00
14204;BME280;7185;51.854;6.622;2022-08-05T00:19:10;101174.03;;;20.04;100.00
14204;BME280;7185;51.854;6.622;2022-08-05T00:21:45;101179.44;;;20.02;100.00
14204;BME280;7185;51.854;6.622;2022-08-05T00:24:16;101176.78;;;20.02;100.00
14204;BME280;7185;51.854;6.622;2022-08-05T00:26:49;101172.00;;;20.09;100.00
14204;BME280;7185;51.854;6.622;2022-08-05T00:29:22;101181.16;;;20.03;100.00
14204;BME280;7185;51.854;6.622;2022-08-05T00:31:54;101178.81;;;19.97;100.00
14204;BME280;7185;51.854;6.622;2022-08-05T00:34:26;101183.34;;;19.95;100.00
14204;BME280;7185;51.854;6.622;2022-08-05T00:36:57;101185.69;;;20.01;100.00
14204;BME280;7185;51.854;6.622;2022-08-05T00:39:29;101179.50;;;20.01;100.00
14204;BME280;7185;51.854;6.622;2022-08-05T00:42:02;101173.53;;;19.96;100.00
14204;BME280;7185;51.854;6.622;2022-08-05T00:44:34;101172.50;;;19.98;100.00
14204;BME280;7185;51.854;6.622;2022-08-05T00:47:06;101155.78;;;19.96;100.00
14204;BME280;7185;51.854;6.622;2022-08-05T00:49:37;101167.69;;;20.06;100.00
14204;BME280;7185;51.854;6.622;2022-08-05T00:52:09;101169.84;;;19.98;100.00
14204;BME280;7185;51.854;6.622;2022-08-05T00:54:41;101164.53;;;19.98;100.00
14204;BME280;7185;51.854;6.622;2022-08-05T00:57:14;101171.66;;;19.98;100.00
14204;BME280;7185;51.854;6.622;2022-08-05T00:59:47;101182.69;;;19.90;100.00
14204;BME280;7185;51.854;6.622;2022-08-05T01:02:18;101193.63;;;19.84;100.00
14204;BME280;7185;51.854;6.622;2022-08-05T01:04:50;101195.06;;;19.91;100.00
14204;BME280;7185;51.854;6.622;2022-08-05T01:07:22;101196.06;;;19.88;100.00
14204;BME280;7185;51.854;6.622;2022-08-05T01:09:53;101186.28;;;19.89;100.00
14204;BME280;7185;51.854;6.622;2022-08-05T01:12:26;101178.81;;;19.97;100.00
14204;BME280;7185;51.854;6.622;2022-08-05T01:15:02;101181.75;;;19.91;100.00
14204;BME280;7185;51.854;6.622;2022-08-05T01:17:38;101171.34;;;19.86;100.00
14204;BME280;7185;51.854;6.622;2022-08-05T01:20:16;101166.88;;;19.87;100.00
14204;BME280;7185;51.854;6.622;2022-08-05T01:23:00;101174.41;;;19.96;100.00
14204;BME280;7185;51.854;6.622;2022-08-05T01:25:52;101163.78;;;19.96;100.00
14204;BME280;7185;51.854;6.622;2022-08-05T01:28:30;101166.56;;;19.93;100.00
14204;BME280;7185;51.854;6.622;2022-08-05T01:31:07;101157.63;;;19.75;100.00
14204;BME280;7185;51.854;6.622;2022-08-05T01:33:44;101154.94;;;19.77;100.00
14204;BME280;7185;51.854;6.622;2022-08-05T01:36:18;101151.53;;;19.92;100.00
14204;BME280;7185;51.854;6.622;2022-08-05T01:38:52;101160.41;;;19.93;100.00
14204;BME280;7185;51.854;6.622;2022-08-05T01:41:26;101149.44;;;19.80;100.00
14204;BME280;7185;51.854;6.622;2022-08-05T01:44:01;101155.06;;;19.73;100.00
14204;BME280;7185;51.854;6.622;2022-08-05T01:46:33;101166.94;;;19.85;100.00
14204;BME280;7185;51.854;6.622;2022-08-05T01:49:07;101165.69;;;19.73;100.00
14204;BME280;7185;51.854;6.622;2022-08-05T01:51:41;101157.81;;;19.72;100.00
14204;BME280;7185;51.854;6.622;2022-08-05T01:54:15;101157.59;;;19.77;100.00
14204;BME280;7185;51.854;6.622;2022-08-05T01:56:49;101166.34;;;19.79;100.00
14204;BME280;7185;51.854;6.622;2022-08-05T01:59:24;101181.06;;;19.67;100.00
14204;BME280;7185;51.854;6.622;2022-08-05T02:01:58;101192.72;;;19.64;100.00
14204;BME280;7185;51.854;6.622;2022-08-05T02:04:33;101191.00;;;19.63;100.00
14204;BME280;7185;51.854;6.622;2022-08-05T02:07:08;101203.09;;;19.51;100.00
14204;BME280;7185;51.854;6.622;2022-08-05T02:09:40;101204.59;;;19.57;100.00
14204;BME280;7185;51.854;6.622;2022-08-05T02:12:26;101214.00;;;19.64;100.00
14204;BME280;7185;51.854;6.622;2022-08-05T02:15:07;101214.47;;;19.55;100.00
14204;BME280;7185;51.854;6.622;2022-08-05T02:17:47;101216.88;;;19.59;100.00
14204;BME280;7185;51.854;6.622;2022-08-05T02:20:22;101218.19;;;19.51;100.00
14204;BME280;7185;51.854;6.622;2022-08-05T02:22:58;101228.25;;;19.63;100.00
14204;BME280;7185;51.854;6.622;2022-08-05T02:25:34;101244.34;;;19.60;100.00
14204;BME280;7185;51.854;6.622;2022-08-05T02:28:07;101259.72;;;19.53;100.00
14204;BME280;7185;51.854;6.622;2022-08-05T02:30:54;101260.72;;;19.51;100.00
14204;BME280;7185;51.854;6.622;2022-08-05T02:33:29;101257.78;;;19.57;100.00
14204;BME280;7185;51.854;6.622;2022-08-05T02:36:04;101266.31;;;19.45;100.00
14204;BME280;7185;51.854;6.622;2022-08-05T02:38:36;101267.13;;;19.47;100.00
14204;BME280;7185;51.854;6.622;2022-08-05T02:41:09;101261.88;;;19.45;100.00
14204;BME280;7185;51.854;6.622;2022-08-05T02:43:42;101269.91;;;19.43;100.00
14204;BME280;7185;51.854;6.622;2022-08-05T02:46:16;101279.78;;;19.41;100.00
14204;BME280;7185;51.854;6.622;2022-08-05T02:48:50;101279.25;;;19.33;100.00
14204;BME280;7185;51.854;6.622;2022-08-05T02:51:23;101259.28;;;19.43;100.00
14204;BME280;7185;51.854;6.622;2022-08-05T02:53:56;101257.28;;;19.28;100.00
14204;BME280;7185;51.854;6.622;2022-08-05T02:56:28;101255.16;;;19.36;100.00
14204;BME280;7185;51.854;6.622;2022-08-05T02:59:00;101238.56;;;19.31;100.00
14204;BME280;7185;51.854;6.622;2022-08-05T03:01:37;101218.16;;;19.32;100.00
14204;BME280;7185;51.854;6.622;2022-08-05T03:04:13;101205.09;;;19.27;100.00
14204;BME280;7185;51.854;6.622;2022-08-05T03:06:45;101168.00;;;19.24;100.00
14204;BME280;7185;51.854;6.622;2022-08-05T03:09:17;101157.22;;;19.27;100.00
14204;BME280;7185;51.854;6.622;2022-08-05T03:11:49;101127.75;;;19.13;100.00
14204;BME280;7185;51.854;6.622;2022-08-05T03:14:21;101108.34;;;19.10;100.00
14204;BME280;7185;51.854;6.622;2022-08-05T03:16:54;101153.16;;;18.99;100.00
14204;BME280;7185;51.854;6.622;2022-08-05T03:19:25;101208.53;;;18.88;100.00
14204;BME280;7185;51.854;6.622;2022-08-05T03:21:57;101214.38;;;18.75;100.00
14204;BME280;7185;51.854;6.622;2022-08-05T03:24:29;101214.50;;;18.72;100.00
14204;BME280;7185;51.854;6.622;2022-08-05T03:27:01;101210.34;;;18.67;100.00
14204;BME280;7185;51.854;6.622;2022-08-05T03:29:33;101207.94;;;18.60;100.00
14204;BME280;7185;51.854;6.622;2022-08-05T03:32:07;101205.28;;;18.60;100.00
14204;BME280;7185;51.854;6.622;2022-08-05T03:34:38;101213.28;;;18.59;100.00
14204;BME280;7185;51.854;6.622;2022-08-05T03:37:10;101205.03;;;18.44;100.00
14204;BME280;7185;51.854;6.622;2022-08-05T03:39:56;101192.84;;;18.40;100.00
14204;BME280;7185;51.854;6.622;2022-08-05T03:42:28;101188.25;;;18.44;100.00
14204;BME280;7185;51.854;6.622;2022-08-05T03:44:59;101186.91;;;18.34;100.00
14204;BME280;7185;51.854;6.622;2022-08-05T03:47:32;101190.63;;;18.29;100.00
14204;BME280;7185;51.854;6.622;2022-08-05T03:50:05;101189.88;;;18.26;100.00
14204;BME280;7185;51.854;6.622;2022-08-05T03:52:49;101201.97;;;18.33;100.00
14204;BME280;7185;51.854;6.622;2022-08-05T03:55:26;101187.72;;;18.36;100.00
14204;BME280;7185;51.854;6.622;2022-08-05T03:57:59;101180.84;;;18.30;100.00
14204;BME280;7185;51.854;6.622;2022-08-05T04:00:32;101179.38;;;18.45;100.00
14204;BME280;7185;51.854;6.622;2022-08-05T04:03:07;101173.19;;;18.44;100.00
14204;BME280;7185;51.854;6.622;2022-08-05T04:05:40;101179.22;;;18.48;100.00
14204;BME280;7185;51.854;6.622;2022-08-05T04:08:13;101169.00;;;18.39;100.00
14204;BME280;7185;51.854;6.622;2022-08-05T04:10:45;101172.31;;;18.44;100.00
14204;BME280;7185;51.854;6.622;2022-08-05T04:13:19;101194.69;;;18.38;100.00
14204;BME280;7185;51.854;6.622;2022-08-05T04:15:57;101198.88;;;18.44;100.00
14204;BME280;7185;51.854;6.622;2022-08-05T04:18:34;101194.59;;;18.40;100.00
14204;BME280;7185;51.854;6.622;2022-08-05T04:21:11;101189.66;;;18.53;100.00
14204;BME280;7185;51.854;6.622;2022-08-05T04:23:45;101199.63;;;18.47;100.00
14204;BME280;7185;51.854;6.622;2022-08-05T04:26:17;101199.47;;;18.51;100.00
14204;BME280;7185;51.854;6.622;2022-08-05T04:28:50;101198.69;;;18.48;100.00
14204;BME280;7185;51.854;6.622;2022-08-05T04:31:43;101185.53;;;18.45;100.00
14204;BME280;7185;51.854;6.622;2022-08-05T04:34:40;101206.03;;;18.42;100.00
14204;BME280;7185;51.854;6.622;2022-08-05T04:44:11;101214.44;;;18.53;100.00
14204;BME280;7185;51.854;6.622;2022-08-05T04:53:32;101196.69;;;18.54;100.00
14204;BME280;7185;51.854;6.622;2022-08-05T04:56:06;101199.47;;;18.51;100.00
14204;BME280;7185;51.854;6.622;2022-08-05T04:58:49;101205.97;;;18.43;100.00
14204;BME280;7185;51.854;6.622;2022-08-05T05:01:41;101213.41;;;18.35;100.00
14204;BME280;7185;51.854;6.622;2022-08-05T05:04:51;101222.47;;;18.29;100.00
14204;BME280;7185;51.854;6.622;2022-08-05T05:27:34;101241.72;;;18.12;100.00
14204;BME280;7185;51.854;6.622;2022-08-05T05:36:06;101254.00;;;17.91;100.00
14204;BME280;7185;51.854;6.622;2022-08-05T05:37:28;101256.72;;;17.90;100.00
14204;BME280;7185;51.854;6.622;2022-08-05T05:40:14;101262.69;;;17.96;100.00
14204;BME280;7185;51.854;6.622;2022-08-05T05:42:55;101281.88;;;17.79;100.00
14204;BME280;7185;51.854;6.622;2022-08-05T05:45:27;101297.09;;;17.74;100.00
14204;BME280;7185;51.854;6.622;2022-08-05T05:48:00;101293.16;;;17.61;100.00
14204;BME280;7185;51.854;6.622;2022-08-05T05:50:36;101285.34;;;17.58;100.00
14204;BME280;7185;51.854;6.622;2022-08-05T05:53:10;101291.44;;;17.60;100.00
14204;BME280;7185;51.854;6.622;2022-08-05T05:55:42;101293.28;;;17.58;100.00
14204;BME280;7185;51.854;6.622;2022-08-05T05:58:16;101286.25;;;17.57;100.00
14204;BME280;7185;51.854;6.622;2022-08-05T06:01:04;101274.13;;;17.49;100.00
14204;BME280;7185;51.854;6.622;2022-08-05T06:03:48;101271.03;;;17.62;100.00
14204;BME280;7185;51.854;6.622;2022-08-05T06:06:39;101280.66;;;17.64;100.00
14204;BME280;7185;51.854;6.622;2022-08-05T06:09:19;101281.69;;;17.60;100.00
14204;BME280;7185;51.854;6.622;2022-08-05T06:11:51;101279.63;;;17.68;100.00
14204;BME280;7185;51.854;6.622;2022-08-05T06:14:24;101282.00;;;17.76;100.00
14204;BME280;7185;51.854;6.622;2022-08-05T06:16:56;101289.03;;;17.77;100.00
14204;BME280;7185;51.854;6.622;2022-08-05T06:19:29;101286.31;;;17.79;100.00
14204;BME280;7185;51.854;6.622;2022-08-05T06:22:09;101282.66;;;17.81;100.00
14204;BME280;7185;51.854;6.622;2022-08-05T06:24:44;101283.66;;;17.79;100.00
14204;BME280;7185;51.854;6.622;2022-08-05T06:27:16;101273.19;;;17.76;100.00
14204;BME280;7185;51.854;6.622;2022-08-05T06:29:52;101278.41;;;17.77;100.00
14204;BME280;7185;51.854;6.622;2022-08-05T06:32:28;101269.72;;;17.74;100.00
14204;BME280;7185;51.854;6.622;2022-08-05T06:35:00;101273.97;;;17.78;100.00
14204;BME280;7185;51.854;6.622;2022-08-05T06:37:32;101282.56;;;17.84;100.00
14204;BME280;7185;51.854;6.622;2022-08-05T06:43:33;101289.19;;;17.73;100.00
14204;BME280;7185;51.854;6.622;2022-08-05T06:53:54;101326.63;;;17.65;100.00
14204;BME280;7185;51.854;6.622;2022-08-05T06:56:30;101314.97;;;17.69;100.00
14204;BME280;7185;51.854;6.622;2022-08-05T06:59:04;101313.91;;;17.73;100.00
14204;BME280;7185;51.854;6.622;2022-08-05T07:02:14;101311.81;;;17.83;100.00
14204;BME280;7185;51.854;6.622;2022-08-05T07:05:10;101302.75;;;17.89;100.00
14204;BME280;7185;51.854;6.622;2022-08-05T07:07:58;101303.78;;;17.84;100.00
14204;BME280;7185;51.854;6.622;2022-08-05T07:14:47;101315.56;;;17.77;100.00
14204;BME280;7185;51.854;6.622;2022-08-05T07:17:47;101324.31;;;17.79;100.00
14204;BME280;7185;51.854;6.622;2022-08-05T07:20:24;101330.94;;;17.67;100.00
14204;BME280;7185;51.854;6.622;2022-08-05T07:23:04;101350.25;;;17.71;100.00
14204;BME280;7185;51.854;6.622;2022-08-05T07:25:36;101358.25;;;17.69;100.00
14204;BME280;7185;51.854;6.622;2022-08-05T07:28:14;101358.22;;;17.71;100.00
14204;BME280;7185;51.854;6.622;2022-08-05T07:30:50;101367.09;;;17.70;100.00
14204;BME280;7185;51.854;6.622;2022-08-05T07:36:10;101368.47;;;17.80;100.00
14204;BME280;7185;51.854;6.622;2022-08-05T07:38:55;101361.56;;;17.76;100.00
14204;BME280;7185;51.854;6.622;2022-08-05T07:41:27;101366.78;;;17.78;100.00
14204;BME280;7185;51.854;6.622;2022-08-05T07:46:42;101366.41;;;17.89;100.00
14204;BME280;7185;51.854;6.622;2022-08-05T07:59:26;101359.25;;;18.16;100.00
14204;BME280;7185;51.854;6.622;2022-08-05T08:02:13;101377.28;;;18.30;100.00
14204;BME280;7185;51.854;6.622;2022-08-05T08:07:36;101383.34;;;18.34;100.00
14204;BME280;7185;51.854;6.622;2022-08-05T08:10:07;101370.97;;;18.32;100.00
14204;BME280;7185;51.854;6.622;2022-08-05T08:15:19;101374.38;;;18.60;100.00
14204;BME280;7185;51.854;6.622;2022-08-05T08:17:52;101377.75;;;18.63;100.00
14204;BME280;7185;51.854;6.622;2022-08-05T08:22:58;101381.97;;;18.69;100.00
14204;BME280;7185;51.854;6.622;2022-08-05T08:25:29;101386.13;;;18.76;100.00
14204;BME280;7185;51.854;6.622;2022-08-05T08:28:02;101388.81;;;18.75;100.00
14204;BME280;7185;51.854;6.622;2022-08-05T08:30:34;101389.28;;;18.86;100.00
14204;BME280;7185;51.854;6.622;2022-08-05T08:33:10;101398.97;;;18.87;100.00
14204;BME280;7185;51.854;6.622;2022-08-05T08:35:42;101405.03;;;18.91;100.00
14204;BME280;7185;51.854;6.622;2022-08-05T08:43:20;101401.31;;;19.17;100.00
14204;BME280;7185;51.854;6.622;2022-08-05T08:45:53;101409.53;;;19.33;100.00
14204;BME280;7185;51.854;6.622;2022-08-05T08:48:26;101422.53;;;19.19;100.00
14204;BME280;7185;51.854;6.622;2022-08-05T08:50:59;101423.75;;;19.32;100.00
14204;BME280;7185;51.854;6.622;2022-08-05T08:53:35;101423.75;;;19.32;100.00
14204;BME280;7185;51.854;6.622;2022-08-05T08:56:07;101425.16;;;19.41;100.00
14204;BME280;7185;51.854;6.622;2022-08-05T08:58:40;101417.63;;;19.51;100.00
14204;BME280;7185;51.854;6.622;2022-08-05T09:01:11;101421.56;;;19.63;100.00
14204;BME280;7185;51.854;6.622;2022-08-05T09:03:47;101422.69;;;19.78;100.00
14204;BME280;7185;51.854;6.622;2022-08-05T09:06:19;101417.91;;;20.06;100.00
14204;BME280;7185;51.854;6.622;2022-08-05T09:08:51;101422.69;;;20.38;100.00
14204;BME280;7185;51.854;6.622;2022-08-05T09:11:23;101429.13;;;20.53;100.00
14204;BME280;7185;51.854;6.622;2022-08-05T09:13:55;101434.09;;;20.80;100.00
14204;BME280;7185;51.854;6.622;2022-08-05T09:16:27;101440.59;;;21.11;100.00
14204;BME280;7185;51.854;6.622;2022-08-05T09:19:00;101436.53;;;21.21;100.00
14204;BME280;7185;51.854;6.622;2022-08-05T09:21:32;101447.44;;;20.97;100.00
14204;BME280;7185;51.854;6.622;2022-08-05T09:24:05;101444.06;;;20.94;100.00
14204;BME280;7185;51.854;6.622;2022-08-05T09:26:38;101449.50;;;20.92;100.00
14204;BME280;7185;51.854;6.622;2022-08-05T09:29:10;101458.50;;;21.26;100.00
14204;BME280;7185;51.854;6.622;2022-08-05T09:31:41;101458.50;;;21.26;100.00
14204;BME280;7185;51.854;6.622;2022-08-05T09:34:15;101466.97;;;21.34;100.00
14204;BME280;7185;51.854;6.622;2022-08-05T09:36:49;101469.03;;;21.29;100.00
14204;BME280;7185;51.854;6.622;2022-08-05T09:39:23;101476.09;;;21.30;100.00
14204;BME280;7185;51.854;6.622;2022-08-05T09:41:57;101478.75;;;21.30;100.00
14204;BME280;7185;51.854;6.622;2022-08-05T09:44:36;101473.06;;;21.56;100.00
14204;BME280;7185;51.854;6.622;2022-08-05T09:47:11;101477.06;;;21.82;100.00
14204;BME280;7185;51.854;6.622;2022-08-05T09:49:46;101475.19;;;22.02;100.00
14204;BME280;7185;51.854;6.622;2022-08-05T09:52:22;101472.69;;;21.81;100.00
14204;BME280;7185;51.854;6.622;2022-08-05T09:54:55;101486.81;;;21.83;100.00
14204;BME280;7185;51.854;6.622;2022-08-05T09:57:32;101477.84;;;21.84;100.00
14204;BME280;7185;51.854;6.622;2022-08-05T10:00:08;101474.25;;;21.68;100.00
14204;BME280;7185;51.854;6.622;2022-08-05T10:02:42;101484.94;;;21.85;100.00
14204;BME280;7185;51.854;6.622;2022-08-05T10:05:17;101489.25;;;21.88;100.00
14204;BME280;7185;51.854;6.622;2022-08-05T10:07:51;101484.28;;;22.15;100.00
14204;BME280;7185;51.854;6.622;2022-08-05T10:10:25;101486.25;;;22.45;100.00
14204;BME280;7185;51.854;6.622;2022-08-05T10:12:59;101486.34;;;22.59;100.00
14204;BME280;7185;51.854;6.622;2022-08-05T10:15:33;101485.25;;;22.96;100.00
14204;BME280;7185;51.854;6.622;2022-08-05T10:18:15;101490.78;;;23.24;100.00
14204;BME280;7185;51.854;6.622;2022-08-05T10:20:52;101482.50;;;23.29;100.00
14204;BME280;7185;51.854;6.622;2022-08-05T10:23:27;101484.38;;;23.43;100.00
14204;BME280;7185;51.854;6.622;2022-08-05T10:26:00;101486.56;;;23.20;100.00
14204;BME280;7185;51.854;6.622;2022-08-05T10:28:33;101486.63;;;23.35;100.00
14204;BME280;7185;51.854;6.622;2022-08-05T10:31:05;101493.09;;;23.47;100.00
14204;BME280;7185;51.854;6.622;2022-08-05T10:33:38;101496.09;;;23.40;100.00
14204;BME280;7185;51.854;6.622;2022-08-05T10:36:11;101493.84;;;23.49;100.00
14204;BME280;7185;51.854;6.622;2022-08-05T10:38:45;101496.72;;;23.30;100.00
14204;BME280;7185;51.854;6.622;2022-08-05T10:41:26;101500.13;;;23.17;100.00
14204;BME280;7185;51.854;6.622;2022-08-05T10:44:01;101507.34;;;23.15;100.00
14204;BME280;7185;51.854;6.622;2022-08-05T10:46:43;101512.03;;;23.28;100.00
14204;BME280;7185;51.854;6.622;2022-08-05T10:49:15;101511.66;;;23.34;100.00
14204;BME280;7185;51.854;6.622;2022-08-05T10:51:50;101515.53;;;23.44;100.00
14204;BME280;7185;51.854;6.622;2022-08-05T10:54:45;101521.50;;;23.33;100.00
14204;BME280;7185;51.854;6.622;2022-08-05T10:57:24;101521.44;;;23.35;100.00
14204;BME280;7185;51.854;6.622;2022-08-05T11:00:07;101522.03;;;23.08;100.00
14204;BME280;7185;51.854;6.622;2022-08-05T11:03:10;101528.97;;;22.95;100.00
14204;BME280;7185;51.854;6.622;2022-08-05T11:06:08;101534.19;;;22.48;100.00
14204;BME280;7185;51.854;6.622;2022-08-05T11:08:49;101540.94;;;22.55;100.00
14204;BME280;7185;51.854;6.622;2022-08-05T11:14:25;101545.97;;;22.77;100.00
14204;BME280;7185;51.854;6.622;2022-08-05T11:20:32;101537.56;;;23.17;100.00
14204;BME280;7185;51.854;6.622;2022-08-05T11:23:49;101534.41;;;23.87;100.00
14204;BME280;7185;51.854;6.622;2022-08-05T11:26:22;101533.19;;;24.81;100.00
14204;BME280;7185;51.854;6.622;2022-08-05T11:28:54;101531.16;;;25.82;100.00
14204;BME280;7185;51.854;6.622;2022-08-05T11:31:29;101526.69;;;26.47;60.92
14204;BME280;7185;51.854;6.622;2022-08-05T11:34:04;101530.56;;;27.06;62.84
14204;BME280;7185;51.854;6.622;2022-08-05T11:36:42;101533.38;;;27.28;57.85
14204;BME280;7185;51.854;6.622;2022-08-05T11:39:47;101525.75;;;27.71;58.76
14204;BME280;7185;51.854;6.622;2022-08-05T11:42:22;101522.16;;;27.94;55.00
14204;BME280;7185;51.854;6.622;2022-08-05T11:45:01;101516.34;;;28.12;53.11
14204;BME280;7185;51.854;6.622;2022-08-05T11:47:34;101523.09;;;28.18;55.41
14204;BME280;7185;51.854;6.622;2022-08-05T11:50:07;101524.81;;;28.53;55.18
14204;BME280;7185;51.854;6.622;2022-08-05T11:52:39;101520.00;;;28.68;50.62
14204;BME280;7185;51.854;6.622;2022-08-05T11:55:12;101518.53;;;28.07;50.52
14204;BME280;7185;51.854;6.622;2022-08-05T11:57:45;101525.84;;;27.93;54.08
14204;BME280;7185;51.854;6.622;2022-08-05T12:00:26;101524.72;;;27.36;54.63
14204;BME280;7185;51.854;6.622;2022-08-05T12:03:14;101533.84;;;26.72;53.05
14204;BME280;7185;51.854;6.622;2022-08-05T12:05:46;101527.56;;;26.34;51.92
14204;BME280;7185;51.854;6.622;2022-08-05T12:08:18;101530.72;;;26.91;52.26
14204;BME280;7185;51.854;6.622;2022-08-05T12:10:52;101531.31;;;27.45;49.47
14204;BME280;7185;51.854;6.622;2022-08-05T12:13:29;101534.84;;;28.17;47.66
14204;BME280;7185;51.854;6.622;2022-08-05T12:16:00;101527.28;;;28.78;44.55
14204;BME280;7185;51.854;6.622;2022-08-05T12:18:33;101530.16;;;29.53;42.70
14204;BME280;7185;51.854;6.622;2022-08-05T12:21:10;101536.97;;;29.69;40.63
14204;BME280;7185;51.854;6.622;2022-08-05T12:23:51;101539.50;;;30.03;40.31
14204;BME280;7185;51.854;6.622;2022-08-05T12:26:29;101540.44;;;29.60;36.11
14204;BME280;7185;51.854;6.622;2022-08-05T12:29:02;101552.75;;;28.97;39.12
14204;BME280;7185;51.854;6.622;2022-08-05T12:31:34;101555.75;;;28.02;38.84
14204;BME280;7185;51.854;6.622;2022-08-05T12:34:06;101561.78;;;27.81;39.78
14204;BME280;7185;51.854;6.622;2022-08-05T12:36:39;101570.41;;;27.38;39.46
14204;BME280;7185;51.854;6.622;2022-08-05T12:39:12;101582.66;;;27.04;38.81
14204;BME280;7185;51.854;6.622;2022-08-05T12:41:45;101580.78;;;26.55;39.21
14204;BME280;7185;51.854;6.622;2022-08-05T12:44:17;101585.28;;;26.16;39.31
14204;BME280;7185;51.854;6.622;2022-08-05T12:46:51;101586.16;;;25.76;40.61
14204;BME280;7185;51.854;6.622;2022-08-05T12:49:23;101588.13;;;25.59;40.92
14204;BME280;7185;51.854;6.622;2022-08-05T12:51:56;101593.59;;;25.58;41.11
14204;BME280;7185;51.854;6.622;2022-08-05T12:54:29;101592.41;;;25.49;40.12
14204;BME280;7185;51.854;6.622;2022-08-05T12:57:04;101592.94;;;25.82;40.77
14204;BME280;7185;51.854;6.622;2022-08-05T12:59:43;101599.28;;;26.21;38.83
14204;BME280;7185;51.854;6.622;2022-08-05T13:02:17;101590.25;;;26.35;39.42
14204;BME280;7185;51.854;6.622;2022-08-05T13:04:51;101598.63;;;26.56;38.03
14204;BME280;7185;51.854;6.622;2022-08-05T13:07:24;101594.50;;;27.15;37.83
14204;BME280;7185;51.854;6.622;2022-08-05T13:09:57;101602.13;;;27.58;35.38
14204;BME280;7185;51.854;6.622;2022-08-05T13:12:30;101602.28;;;27.68;34.84
14204;BME280;7185;51.854;6.622;2022-08-05T13:15:02;101606.28;;;27.87;35.05
14204;BME280;7185;51.854;6.622;2022-08-05T13:17:33;101603.38;;;28.25;35.57
14204;BME280;7185;51.854;6.622;2022-08-05T13:20:07;101601.22;;;28.65;35.07
14204;BME280;7185;51.854;6.622;2022-08-05T13:22:40;101607.44;;;28.42;33.99
14204;BME280;7185;51.854;6.622;2022-08-05T13:25:14;101607.31;;;28.33;34.81
14204;BME280;7185;51.854;6.622;2022-08-05T13:27:49;101602.69;;;27.75;34.20
14204;BME280;7185;51.854;6.622;2022-08-05T13:30:21;101614.13;;;26.91;33.64
14204;BME280;7185;51.854;6.622;2022-08-05T13:32:55;101606.16;;;27.02;37.13
14204;BME280;7185;51.854;6.622;2022-08-05T13:35:27;101623.16;;;26.38;36.42
14204;BME280;7185;51.854;6.622;2022-08-05T13:37:58;101626.75;;;26.12;37.80
14204;BME280;7185;51.854;6.622;2022-08-05T13:40:30;101634.75;;;25.58;35.50
14204;BME280;7185;51.854;6.622;2022-08-05T13:43:03;101638.75;;;25.09;38.29
14204;BME280;7185;51.854;6.622;2022-08-05T13:45:35;101635.88;;;24.98;38.14
14204;BME280;7185;51.854;6.622;2022-08-05T13:48:06;101644.97;;;24.81;39.01
14204;BME280;7185;51.854;6.622;2022-08-05T13:50:38;101645.03;;;24.65;38.21
14204;BME280;7185;51.854;6.622;2022-08-05T13:53:10;101653.44;;;24.59;40.81
14204;BME280;7185;51.854;6.622;2022-08-05T13:55:41;101656.38;;;24.40;39.46
14204;BME280;7185;51.854;6.622;2022-08-05T13:58:14;101653.25;;;24.47;38.71
14204;BME280;7185;51.854;6.622;2022-08-05T14:00:46;101657.41;;;24.37;39.36
14204;BME280;7185;51.854;6.622;2022-08-05T14:03:18;101658.97;;;24.41;39.50
14204;BME280;7185;51.854;6.622;2022-08-05T14:05:49;101662.88;;;24.35;39.67
14204;BME280;7185;51.854;6.622;2022-08-05T14:08:20;101664.34;;;24.41;39.38
14204;BME280;7185;51.854;6.622;2022-08-05T14:10:52;101668.50;;;24.31;40.37
14204;BME280;7185;51.854;6.622;2022-08-05T14:13:25;101669.41;;;24.31;39.29
14204;BME280;7185;51.854;6.622;2022-08-05T14:15:56;101673.13;;;24.43;39.47
14204;BME280;7185;51.854;6.622;2022-08-05T14:18:28;101682.91;;;24.44;39.41
14204;BME280;7185;51.854;6.622;2022-08-05T14:21:00;101685.13;;;24.52;40.08
14204;BME280;7185;51.854;6.622;2022-08-05T14:23:32;101688.84;;;24.49;39.76
14204;BME280;7185;51.854;6.622;2022-08-05T14:26:03;101684.91;;;24.41;39.30
14204;BME280;7185;51.854;6.622;2022-08-05T14:28:37;101698.03;;;24.45;40.05
14204;BME280;7185;51.854;6.622;2022-08-05T14:31:08;101688.53;;;24.09;40.10
14204;BME280;7185;51.854;6.622;2022-08-05T14:33:40;101694.25;;;23.87;40.92
14204;BME280;7185;51.854;6.622;2022-08-05T14:36:12;101687.16;;;23.86;41.24
14204;BME280;7185;51.854;6.622;2022-08-05T14:38:43;101699.75;;;24.00;41.98
14204;BME280;7185;51.854;6.622;2022-08-05T14:41:15;101706.44;;;24.09;43.05
14204;BME280;7185;51.854;6.622;2022-08-05T14:43:48;101702.44;;;24.00;41.12
14204;BME280;7185;51.854;6.622;2022-08-05T14:46:20;101699.84;;;24.14;43.00
14204;BME280;7185;51.854;6.622;2022-08-05T14:48:52;101701.72;;;24.28;43.00
14204;BME280;7185;51.854;6.622;2022-08-05T14:51:23;101719.38;;;24.16;41.52
14204;BME280;7185;51.854;6.622;2022-08-05T14:53:55;101713.91;;;24.18;44.43
14204;BME280;7185;51.854;6.622;2022-08-05T14:56:27;101709.34;;;24.20;42.40
14204;BME280;7185;51.854;6.622;2022-08-05T14:59:00;101709.66;;;24.30;41.05
14204;BME280;7185;51.854;6.622;2022-08-05T15:01:32;101718.53;;;24.16;41.86
14204;BME280;7185;51.854;6.622;2022-08-05T15:04:03;101718.44;;;24.01;41.76